Time;durP1;ratioP1;P1;durP2;ratioP2;P2;SDS_P1;SDS_P2;PMS_P1;PMS_P2;Temp;Humidity;BMP_temperature;BMP_pressure;BME280_temperature;BME280_humidity;BME280_pressure;Samples;Min_cycle;Max_cycle;Signal;HPM_P1;HPM_P2
2023/12/22 00:02:23;;;;;;;;;;;7.30;99.90;;;7.11;100.00;96554.78;5022437;28;3268;-70
2023/12/22 00:04:50;;;;;;;;;;;7.40;99.90;;;6.97;100.00;96555.41;5016241;28;1450;-70
2023/12/22 00:07:17;;;;;;;;;;;7.40;99.90;;;7.11;100.00;96539.31;5033068;28;1263;-71
2023/12/22 00:09:44;;;;;;;;;;;7.40;99.90;;;7.08;100.00;96550.59;5019558;28;1979;-70
2023/12/22 00:12:11;;;;;;;;;;;7.40;99.90;;;7.01;100.00;96559.53;5030732;28;1399;-70
2023/12/22 00:14:40;;;;;;;;;;;7.40;99.90;;;6.85;100.00;96558.53;5021238;28;1432;-70
2023/12/22 00:17:07;;;;;;;;;;;7.40;99.90;;;7.12;100.00;96574.53;5049338;28;1970;-70
2023/12/22 00:19:34;;;;;;;;;;;7.40;99.90;;;6.85;100.00;96564.53;5033194;28;1562;-70
2023/12/22 00:22:03;;;;;;;;;;;7.40;99.90;;;6.83;100.00;96550.88;5017228;28;1372;-70
2023/12/22 00:24:30;;;;;;;;;;;7.40;99.90;;;6.73;100.00;96553.91;5018197;28;2008;-70
2023/12/22 00:26:57;;;;;;;;;;;7.30;99.90;;;6.83;100.00;96553.44;5019847;28;1599;-71
2023/12/22 00:29:24;;;;;;;;;;;7.30;99.90;;;6.99;100.00;96550.19;5016925;28;2006;-70
2023/12/22 00:31:51;;;;;;;;;;;7.30;99.90;;;6.90;100.00;96554.84;5019507;28;2008;-71
2023/12/22 00:34:19;;;;;;;;;;;7.40;99.90;;;7.07;100.00;96542.91;5018862;28;1465;-70
2023/12/22 00:36:46;;;;;;;;;;;7.40;99.90;;;7.10;100.00;96553.13;5018355;28;1360;-71
2023/12/22 00:39:13;;;;;;;;;;;7.40;99.90;;;6.84;100.00;96543.97;5016775;28;1375;-70
2023/12/22 00:41:40;;;;;;;;;;;7.40;99.90;;;7.01;100.00;96541.47;5019267;28;1403;-69
2023/12/22 00:44:07;;;;;;;;;;;7.30;99.90;;;6.93;100.00;96546.13;5019116;28;1441;-70
2023/12/22 00:46:34;;;;;;;;;;;7.30;99.90;;;6.82;100.00;96564.69;5015928;28;3175;-70
2023/12/22 00:49:01;;;;;;;;;;;7.30;99.90;;;6.88;100.00;96572.13;5019667;28;1991;-70
2023/12/22 00:51:28;;;;;;;;;;;7.30;99.90;;;6.79;100.00;96561.38;5017930;28;1458;-70
2023/12/22 00:53:54;;;;;;;;;;;7.30;99.90;;;6.85;100.00;96554.22;5033373;28;1434;-70
2023/12/22 00:56:21;;;;;;;;;;;7.30;99.90;;;6.83;100.00;96566.34;5017824;28;1494;-70
2023/12/22 00:58:48;;;;;;;;;;;7.20;99.90;;;6.94;100.00;96581.34;5014434;28;1941;-70
2023/12/22 01:01:27;;;;;;;;;;;7.30;99.90;;;6.90;100.00;96554.00;5019469;28;1508;-71
2023/12/22 01:03:54;;;;;;;;;;;7.30;99.90;;;6.91;100.00;96591.78;5035583;28;1483;-70
2023/12/22 01:06:21;;;;;;;;;;;7.30;99.90;;;6.85;100.00;96576.59;5021279;28;1404;-70
2023/12/22 01:08:53;;;;;;;;;;;7.30;99.90;;;6.82;100.00;96575.00;5017567;28;2020;-70
2023/12/22 01:11:20;;;;;;;;;;;7.20;99.90;;;6.88;100.00;96566.97;5017862;28;1345;-70
2023/12/22 01:13:47;;;;;;;;;;;7.20;99.90;;;6.87;100.00;96565.31;5019091;28;1582;-70
2023/12/22 01:16:15;;;;;;;;;;;7.20;99.90;;;6.75;100.00;96575.31;5018397;28;1397;-70
2023/12/22 01:18:45;;;;;;;;;;;7.20;99.90;;;6.54;100.00;96575.31;5018608;28;1380;-70
2023/12/22 01:21:11;;;;;;;;;;;7.10;99.90;;;6.59;100.00;96598.34;5016068;28;1643;-71
2023/12/22 01:23:38;;;;;;;;;;;7.10;99.90;;;6.81;100.00;96593.09;5034286;28;1485;-70
2023/12/22 01:26:05;;;;;;;;;;;7.10;99.90;;;6.56;100.00;96578.69;5037072;28;1311;-70
2023/12/22 01:28:34;;;;;;;;;;;7.00;99.90;;;6.60;100.00;96592.28;5022421;28;3304;-71
2023/12/22 01:31:02;;;;;;;;;;;7.00;99.90;;;6.58;100.00;96597.50;5034786;28;1462;-70
2023/12/22 01:33:32;;;;;;;;;;;7.00;99.90;;;6.60;100.00;96629.22;5019492;28;1793;-72
2023/12/22 01:35:59;;;;;;;;;;;7.10;99.90;;;6.87;100.00;96622.06;5024305;28;1461;-70
2023/12/22 01:38:26;;;;;;;;;;;7.10;99.90;;;6.81;100.00;96608.59;5023641;28;1451;-71
2023/12/22 01:40:52;;;;;;;;;;;7.20;99.90;;;6.90;100.00;96616.75;5025041;28;2158;-71
2023/12/22 01:43:21;;;;;;;;;;;7.30;99.90;;;6.93;100.00;96602.88;5020855;28;1388;-70
2023/12/22 01:45:52;;;;;;;;;;;7.30;99.90;;;6.91;100.00;96596.94;5021907;28;1411;-70
2023/12/22 01:48:19;;;;;;;;;;;7.30;99.90;;;6.88;100.00;96607.41;5020525;28;1891;-70
2023/12/22 01:50:46;;;;;;;;;;;7.20;99.90;;;6.65;100.00;96562.81;5022370;28;1388;-70
2023/12/22 01:53:13;;;;;;;;;;;7.20;99.90;;;6.79;100.00;96589.75;5006887;28;1399;-70
2023/12/22 01:55:40;;;;;;;;;;;7.10;99.90;;;6.73;100.00;96590.88;5020305;28;2209;-70
2023/12/22 01:58:07;;;;;;;;;;;7.10;99.90;;;6.73;100.00;96608.91;5018821;28;5111;-70
2023/12/22 02:00:34;;;;;;;;;;;7.10;99.90;;;6.69;100.00;96591.91;5021425;28;1611;-70
2023/12/22 02:03:01;;;;;;;;;;;7.10;99.90;;;6.77;100.00;96596.72;5025087;28;1833;-70
2023/12/22 02:05:29;;;;;;;;;;;7.10;99.90;;;6.67;100.00;96602.28;5021664;28;1364;-70
2023/12/22 02:07:56;;;;;;;;;;;7.10;99.90;;;6.77;100.00;96582.06;5016546;28;1380;-70
2023/12/22 02:10:23;;;;;;;;;;;7.20;99.90;;;6.91;100.00;96607.25;5015819;28;3253;-69
2023/12/22 02:12:51;;;;;;;;;;;7.30;99.90;;;6.93;100.00;96591.72;5024612;28;1386;-70
2023/12/22 02:15:18;;;;;;;;;;;7.30;99.90;;;6.90;100.00;96614.19;5021816;28;1325;-70
2023/12/22 02:17:59;;;;;;;;;;;7.30;99.90;;;6.89;100.00;96617.66;5020234;28;1407;-70
2023/12/22 02:20:26;;;;;;;;;;;7.30;99.90;;;6.96;100.00;96604.50;5035829;28;1320;-70
2023/12/22 02:22:53;;;;;;;;;;;7.30;99.90;;;6.91;100.00;96615.00;5018892;28;2050;-70
2023/12/22 02:25:20;;;;;;;;;;;7.30;99.90;;;6.90;100.00;96606.44;5018068;28;1400;-70
2023/12/22 02:27:53;;;;;;;;;;;7.30;99.90;;;6.88;100.00;96605.66;5019304;28;1376;-70
2023/12/22 02:30:23;;;;;;;;;;;7.30;99.90;;;6.87;100.00;96604.00;5019608;28;1972;-70
2023/12/22 02:32:51;;;;;;;;;;;7.30;99.90;;;6.91;100.00;96622.75;5019062;28;1431;-70
2023/12/22 02:35:21;;;;;;;;;;;7.30;99.90;;;7.01;100.00;96612.88;5018280;28;1459;-70
2023/12/22 02:37:49;;;;;;;;;;;7.30;99.90;;;6.88;100.00;96631.44;5021877;28;2114;-71
2023/12/22 02:40:17;;;;;;;;;;;7.30;99.90;;;6.99;100.00;96625.84;5050990;28;1383;-71
2023/12/22 02:42:44;;;;;;;;;;;7.40;99.90;;;6.89;100.00;96624.59;5018905;28;1414;-71
2023/12/22 02:45:14;;;;;;;;;;;7.30;99.90;;;7.01;100.00;96624.03;5018679;28;1381;-70
2023/12/22 02:47:41;;;;;;;;;;;7.40;99.90;;;6.83;100.00;96635.16;5034451;28;1410;-70
2023/12/22 02:50:09;;;;;;;;;;;7.30;99.90;;;6.65;100.00;96637.59;5019521;28;1906;-71
2023/12/22 02:52:36;;;;;;;;;;;7.20;99.90;;;6.46;100.00;96637.53;5019654;28;1391;-70
2023/12/22 02:55:04;;;;;;;;;;;7.10;99.90;;;6.34;100.00;96658.66;5021342;28;1425;-70
2023/12/22 02:57:31;;;;;;;;;;;6.90;99.90;;;6.21;100.00;96662.63;5020752;28;1380;-70
2023/12/22 02:59:58;;;;;;;;;;;6.80;99.90;;;6.15;100.00;96683.47;5020565;28;1333;-70
2023/12/22 03:02:25;;;;;;;;;;;6.80;99.90;;;6.25;100.00;96690.78;5020357;28;1800;-70
2023/12/22 03:04:52;;;;;;;;;;;6.70;99.90;;;6.18;100.00;96697.09;5019606;28;1311;-69
2023/12/22 03:07:19;;;;;;;;;;;6.60;99.90;;;6.17;100.00;96704.88;5017882;28;1419;-70
2023/12/22 03:09:45;;;;;;;;;;;6.70;99.90;;;6.06;100.00;96689.81;5021052;28;1981;-70
2023/12/22 03:12:12;;;;;;;;;;;6.60;99.90;;;6.02;100.00;96708.88;5020041;28;1393;-70
2023/12/22 03:14:39;;;;;;;;;;;6.50;99.90;;;6.09;100.00;96697.44;5018983;28;1409;-70
2023/12/22 03:17:06;;;;;;;;;;;6.50;99.90;;;6.09;100.00;96684.56;5022791;28;1632;-70
2023/12/22 03:19:34;;;;;;;;;;;6.50;99.90;;;6.17;100.00;96687.66;5033565;28;1268;-71
2023/12/22 03:22:03;;;;;;;;;;;6.50;99.90;;;6.14;100.00;96681.81;5020664;28;1435;-69
2023/12/22 03:24:30;;;;;;;;;;;6.50;99.90;;;6.14;100.00;96669.75;5014817;28;1421;-70
2023/12/22 03:26:57;;;;;;;;;;;6.50;99.90;;;6.01;100.00;96648.78;5021280;28;1463;-70
2023/12/22 03:29:24;;;;;;;;;;;6.50;99.90;;;6.10;100.00;96668.19;5016740;28;1907;-70
2023/12/22 03:31:51;;;;;;;;;;;6.50;99.90;;;5.97;100.00;96665.25;5017867;28;1571;-70
2023/12/22 03:34:18;;;;;;;;;;;6.50;99.90;;;5.87;100.00;96663.91;5018250;28;1371;-71
2023/12/22 03:36:48;;;;;;;;;;;6.40;99.90;;;5.97;100.00;96659.25;5022772;28;1440;-70
2023/12/22 03:39:16;;;;;;;;;;;6.50;99.90;;;5.95;100.00;96700.53;5033958;28;1394;-70
2023/12/22 03:41:43;;;;;;;;;;;6.50;99.90;;;6.08;100.00;96688.03;5035548;28;1383;-70
2023/12/22 03:44:10;;;;;;;;;;;6.50;99.90;;;6.01;100.00;96665.97;5033413;28;1459;-71
2023/12/22 03:46:37;;;;;;;;;;;6.60;99.90;;;6.08;100.00;96712.03;5017331;28;1416;-71
2023/12/22 03:49:03;;;;;;;;;;;6.60;99.90;;;6.09;100.00;96687.16;5017822;28;1985;-70
2023/12/22 03:51:30;;;;;;;;;;;6.60;99.90;;;6.08;100.00;96680.28;5020923;28;1412;-70
2023/12/22 03:53:57;;;;;;;;;;;6.60;99.90;;;6.07;100.00;96705.22;5020473;28;1485;-70
2023/12/22 03:56:24;;;;;;;;;;;6.50;99.90;;;6.12;100.00;96711.94;5017975;28;1371;-70
2023/12/22 03:58:51;;;;;;;;;;;6.50;99.90;;;6.06;100.00;96689.81;5020380;28;1434;-70
2023/12/22 04:01:18;;;;;;;;;;;6.50;99.90;;;6.25;100.00;96697.69;5017058;28;2863;-70
2023/12/22 04:03:45;;;;;;;;;;;6.50;99.90;;;6.24;100.00;96690.84;5033202;28;1390;-69
2023/12/22 04:06:12;;;;;;;;;;;6.50;99.90;;;6.32;100.00;96687.94;5020185;28;1356;-70
2023/12/22 04:08:39;;;;;;;;;;;6.50;99.90;;;6.27;100.00;96685.56;5018411;28;1971;-71
2023/12/22 04:11:06;;;;;;;;;;;6.50;99.90;;;6.32;100.00;96693.09;5016502;28;1523;-70
2023/12/22 04:13:33;;;;;;;;;;;6.60;99.90;;;6.24;100.00;96696.81;5020154;28;1395;-71
2023/12/22 04:16:01;;;;;;;;;;;6.60;99.90;;;6.30;100.00;96664.00;5021240;28;1503;-70
2023/12/22 04:18:28;;;;;;;;;;;6.60;99.90;;;6.28;100.00;96705.28;5018520;28;1347;-70
2023/12/22 04:20:55;;;;;;;;;;;6.60;99.90;;;6.41;100.00;96706.50;5016114;28;1481;-70
2023/12/22 04:23:22;;;;;;;;;;;6.60;99.90;;;6.45;100.00;96707.19;5018441;28;1887;-70
2023/12/22 04:25:50;;;;;;;;;;;6.70;99.90;;;6.41;100.00;96698.75;5018887;28;1457;-70
2023/12/22 04:28:17;;;;;;;;;;;6.70;99.90;;;6.42;100.00;96674.63;5018880;28;1316;-71
2023/12/22 04:30:45;;;;;;;;;;;6.80;99.90;;;6.30;100.00;96671.75;5020239;28;2091;-70
2023/12/22 04:33:12;;;;;;;;;;;6.70;99.90;;;6.59;100.00;96698.88;5017744;28;1403;-70
2023/12/22 04:35:39;;;;;;;;;;;6.80;99.90;;;6.60;100.00;96698.84;5030418;28;1399;-70
2023/12/22 04:38:05;;;;;;;;;;;6.80;99.90;;;6.65;100.00;96676.28;5014945;28;1382;-70
2023/12/22 04:40:32;;;;;;;;;;;6.90;99.90;;;6.66;100.00;96677.97;5018381;28;1356;-70
2023/12/22 04:42:59;;;;;;;;;;;7.00;99.90;;;6.73;100.00;96664.78;5016948;28;1280;-70
2023/12/22 04:45:26;;;;;;;;;;;7.00;99.90;;;6.70;100.00;96634.81;5020782;28;3056;-72
2023/12/22 04:47:53;;;;;;;;;;;7.10;99.90;;;6.81;100.00;96663.56;5018145;28;1148;-70
2023/12/22 04:50:20;;;;;;;;;;;7.10;99.90;;;6.86;100.00;96679.69;5018797;28;1989;-70
2023/12/22 04:52:47;;;;;;;;;;;7.20;99.90;;;6.87;100.00;96662.50;5019668;28;1313;-71
2023/12/22 04:55:15;;;;;;;;;;;7.20;99.90;;;6.91;100.00;96674.34;5016866;28;1239;-71
2023/12/22 04:57:42;;;;;;;;;;;7.20;99.90;;;6.93;100.00;96674.28;5016285;28;2125;-70
2023/12/22 05:00:09;;;;;;;;;;;7.30;99.90;;;6.91;100.00;96689.81;5017802;28;1443;-70
2023/12/22 05:02:36;;;;;;;;;;;7.30;99.90;;;6.94;100.00;96676.81;5016462;28;1539;-71
2023/12/22 05:05:03;;;;;;;;;;;7.30;99.90;;;6.93;100.00;96674.28;5019401;28;1461;-70
2023/12/22 05:07:30;;;;;;;;;;;7.30;99.90;;;6.94;100.00;96684.53;5018512;28;1450;-71
2023/12/22 05:09:57;;;;;;;;;;;7.30;99.90;;;6.98;100.00;96692.97;5049150;28;1980;-70
2023/12/22 05:12:24;;;;;;;;;;;7.30;99.90;;;6.85;100.00;96685.78;5016975;28;1591;-71
2023/12/22 05:14:51;;;;;;;;;;;7.40;99.90;;;6.89;100.00;96704.56;5015619;28;1500;-70
2023/12/22 05:17:18;;;;;;;;;;;7.40;99.90;;;6.89;100.00;96700.22;5021994;28;1535;-71
2023/12/22 05:19:44;;;;;;;;;;;7.40;99.90;;;6.90;100.00;96711.38;5020521;28;1336;-70
2023/12/22 05:22:11;;;;;;;;;;;7.40;99.90;;;6.98;100.00;96716.19;5028588;28;1483;-70
2023/12/22 05:24:38;;;;;;;;;;;7.40;99.90;;;7.02;100.00;96710.84;5024761;28;1440;-70
2023/12/22 05:27:05;;;;;;;;;;;7.40;99.90;;;6.94;100.00;96712.09;5032594;28;1520;-70
2023/12/22 05:29:32;;;;;;;;;;;7.40;99.90;;;6.81;100.00;96710.00;5016895;28;1967;-70
2023/12/22 05:32:00;;;;;;;;;;;7.30;99.90;;;6.67;100.00;96709.75;5030495;28;1575;-70
2023/12/22 05:34:27;;;;;;;;;;;7.30;99.90;;;6.72;100.00;96719.88;5016776;28;1842;-70
2023/12/22 05:36:54;;;;;;;;;;;7.30;99.90;;;6.66;100.00;96732.13;5017652;28;1569;-71
2023/12/22 05:39:21;;;;;;;;;;;7.20;99.90;;;6.61;100.00;96723.72;5019183;28;1393;-71
2023/12/22 05:41:48;;;;;;;;;;;7.20;99.90;;;6.81;100.00;96730.63;5021916;28;3147;-70
2023/12/22 05:44:15;;;;;;;;;;;7.20;99.90;;;6.77;100.00;96725.66;5014682;28;1654;-70
2023/12/22 05:46:42;;;;;;;;;;;7.20;99.90;;;6.68;100.00;96722.59;5015466;28;1546;-70
2023/12/22 05:49:09;;;;;;;;;;;7.20;99.90;;;6.67;100.00;96705.41;5017201;28;1926;-70
2023/12/22 05:51:39;;;;;;;;;;;7.10;99.90;;;6.52;100.00;96728.41;5027001;28;1499;-70
2023/12/22 05:54:11;;;;;;;;;;;7.10;99.90;;;6.52;100.00;96700.88;5029685;28;1776;-70
2023/12/22 05:56:38;;;;;;;;;;;7.10;99.90;;;6.49;100.00;96717.31;5021885;28;5107;-70
2023/12/22 05:59:05;;;;;;;;;;;7.10;99.90;;;6.60;100.00;96742.69;5013792;28;1416;-70
2023/12/22 06:01:32;;;;;;;;;;;7.00;99.90;;;6.42;100.00;96722.78;5015285;28;1502;-70
2023/12/22 06:03:59;;;;;;;;;;;7.00;99.90;;;6.70;100.00;96743.13;5015428;28;1490;-72
2023/12/22 06:06:27;;;;;;;;;;;7.00;99.90;;;6.50;100.00;96751.69;5016698;28;1375;-70
2023/12/22 06:08:54;;;;;;;;;;;7.00;99.90;;;6.51;100.00;96745.63;5032696;28;1986;-70
2023/12/22 06:11:22;;;;;;;;;;;6.90;99.90;;;6.51;100.00;96744.78;5018643;28;1914;-70
2023/12/22 06:13:49;;;;;;;;;;;6.90;99.90;;;6.45;100.00;96728.66;5020891;28;1503;-70
2023/12/22 06:16:18;;;;;;;;;;;6.90;99.90;;;6.51;100.00;96735.31;5018791;28;1365;-70
2023/12/22 06:18:45;;;;;;;;;;;7.00;99.90;;;6.59;100.00;96758.19;5034753;28;1075;-70
2023/12/22 06:21:12;;;;;;;;;;;6.90;99.90;;;6.62;100.00;96756.34;5021556;28;1129;-70
2023/12/22 06:23:39;;;;;;;;;;;6.90;99.90;;;6.33;100.00;96766.97;5018394;28;3197;-70
2023/12/22 06:26:12;;;;;;;;;;;6.80;99.90;;;6.45;100.00;96782.81;5019727;28;1149;-70
2023/12/22 06:28:39;;;;;;;;;;;6.90;99.90;;;6.39;100.00;96782.19;5018627;28;1050;-70
2023/12/22 06:31:09;;;;;;;;;;;6.90;99.90;;;6.36;100.00;96780.56;5017412;28;1911;-70
2023/12/22 06:33:35;;;;;;;;;;;6.80;99.90;;;6.39;100.00;96792.50;5016825;28;1379;-70
2023/12/22 06:36:03;;;;;;;;;;;6.80;99.90;;;6.38;100.00;96795.97;5016898;28;2147;-70
2023/12/22 06:38:31;;;;;;;;;;;6.80;99.90;;;6.46;100.00;96812.84;5034377;28;1067;-70
2023/12/22 06:40:57;;;;;;;;;;;6.70;99.90;;;6.51;100.00;96796.34;5035065;28;1093;-70
2023/12/22 06:43:24;;;;;;;;;;;6.70;99.90;;;6.36;100.00;96796.03;5020605;28;1303;-71
2023/12/22 06:45:54;;;;;;;;;;;6.80;99.90;;;6.41;100.00;96798.41;5019463;28;1079;-71
2023/12/22 06:48:22;;;;;;;;;;;6.80;99.90;;;6.51;100.00;96822.13;5020309;28;1215;-70
2023/12/22 06:50:49;;;;;;;;;;;6.80;99.90;;;6.42;100.00;96802.69;5016417;28;2304;-70
2023/12/22 06:53:18;;;;;;;;;;;6.80;99.90;;;6.37;100.00;96817.50;5018387;28;1364;-70
2023/12/22 06:55:52;;;;;;;;;;;6.70;99.90;;;6.24;100.00;96802.47;5017549;28;1220;-71
2023/12/22 06:58:21;;;;;;;;;;;6.70;99.90;;;6.22;100.00;96817.16;5019414;28;1430;-70
2023/12/22 07:00:48;;;;;;;;;;;6.70;99.90;;;6.35;100.00;96822.72;5019067;28;1240;-70
2023/12/22 07:03:17;;;;;;;;;;;6.70;99.90;;;6.31;100.00;96820.31;5016717;28;1312;-70
2023/12/22 07:05:44;;;;;;;;;;;6.70;99.90;;;6.33;100.00;96821.91;5018078;28;1166;-70
2023/12/22 07:08:12;;;;;;;;;;;6.60;99.90;;;6.36;100.00;96834.69;5020574;28;1188;-70
2023/12/22 07:10:39;;;;;;;;;;;6.70;99.90;;;6.29;100.00;96846.13;5014676;28;1981;-70
2023/12/22 07:13:07;;;;;;;;;;;6.60;99.90;;;6.41;100.00;96849.97;5019451;28;1508;-70
2023/12/22 07:15:34;;;;;;;;;;;6.70;99.90;;;6.26;100.00;96843.66;5016984;28;1009;-71
2023/12/22 07:18:04;;;;;;;;;;;6.60;99.90;;;6.38;100.00;96845.78;5007171;28;1139;-70
2023/12/22 07:20:31;;;;;;;;;;;6.70;99.90;;;6.31;100.00;96821.13;5015550;28;1882;-71
2023/12/22 07:22:58;;;;;;;;;;;6.70;99.90;;;6.34;100.00;96848.53;5016992;28;1355;-70
2023/12/22 07:25:28;;;;;;;;;;;6.70;99.90;;;6.30;100.00;96868.44;5020871;28;1038;-70
2023/12/22 07:27:56;;;;;;;;;;;6.60;99.90;;;6.26;100.00;96879.75;5019838;28;1022;-71
2023/12/22 07:30:24;;;;;;;;;;;6.70;99.90;;;6.34;100.00;96877.75;5018434;28;1894;-71
2023/12/22 07:32:52;;;;;;;;;;;6.70;99.90;;;6.28;100.00;96858.19;5013882;28;3200;-71
2023/12/22 07:35:19;;;;;;;;;;;6.70;99.90;;;6.35;100.00;96857.97;5017280;28;1161;-70
2023/12/22 07:37:46;;;;;;;;;;;6.70;99.90;;;6.34;100.00;96874.31;5017136;28;1101;-71
2023/12/22 07:40:16;;;;;;;;;;;6.70;99.90;;;6.53;100.00;96882.22;5019112;28;1244;-70
2023/12/22 07:42:43;;;;;;;;;;;6.80;99.90;;;6.47;100.00;96876.38;5017160;28;1347;-71
2023/12/22 07:45:10;;;;;;;;;;;6.90;99.90;;;6.54;100.00;96882.13;5018177;28;1691;-71
2023/12/22 07:47:37;;;;;;;;;;;6.90;99.90;;;6.59;100.00;96892.28;5019552;28;2149;-70
2023/12/22 07:50:08;;;;;;;;;;;7.00;99.90;;;6.63;100.00;96892.09;5018985;28;1942;-70
2023/12/22 07:52:38;;;;;;;;;;;7.00;99.90;;;6.64;100.00;96875.75;5020706;28;1355;-70
2023/12/22 07:55:07;;;;;;;;;;;7.00;99.90;;;6.62;100.00;96899.91;5019057;28;1155;-70
2023/12/22 07:57:33;;;;;;;;;;;7.00;99.90;;;6.65;100.00;96903.19;5016539;28;5115;-71
2023/12/22 08:00:00;;;;;;;;;;;7.10;99.90;;;6.74;100.00;96890.88;5019189;28;1144;-70
2023/12/22 08:02:28;;;;;;;;;;;7.10;99.90;;;6.90;100.00;96894.53;5020613;28;1438;-70
2023/12/22 08:04:54;;;;;;;;;;;7.10;99.90;;;6.86;100.00;96898.97;5016710;28;1338;-71
2023/12/22 08:07:21;;;;;;;;;;;7.10;99.90;;;6.89;100.00;96901.44;5017959;28;1080;-70
2023/12/22 08:09:49;;;;;;;;;;;7.20;99.90;;;6.92;100.00;96903.06;5015343;28;1938;-71
2023/12/22 08:12:16;;;;;;;;;;;7.20;99.90;;;6.84;100.00;96903.38;5017115;28;1327;-70
2023/12/22 08:14:43;;;;;;;;;;;7.20;99.90;;;6.83;100.00;96896.50;5019644;28;3246;-70
2023/12/22 08:17:09;;;;;;;;;;;7.20;99.90;;;6.95;100.00;96896.94;5018438;28;1113;-70
2023/12/22 08:19:37;;;;;;;;;;;7.30;99.90;;;7.05;100.00;96900.84;5019182;28;1279;-70
2023/12/22 08:22:05;;;;;;;;;;;7.30;99.90;;;6.95;100.00;96909.84;5014752;28;1331;-70
2023/12/22 08:24:34;;;;;;;;;;;7.30;99.90;;;7.09;100.00;96907.53;5015726;28;1196;-70
2023/12/22 08:27:01;;;;;;;;;;;7.30;99.90;;;7.20;100.00;96877.00;5020832;28;1735;-71
2023/12/22 08:29:28;;;;;;;;;;;7.30;99.90;;;7.21;100.00;96890.75;5017750;28;2289;-70
2023/12/22 08:31:54;;;;;;;;;;;7.30;99.90;;;6.98;100.00;96871.88;5014924;28;2057;-70
2023/12/22 08:34:21;;;;;;;;;;;7.40;99.90;;;7.23;100.00;96886.34;5016866;28;1029;-70
2023/12/22 08:36:48;;;;;;;;;;;7.40;99.90;;;7.09;100.00;96954.88;5028855;28;1080;-71
2023/12/22 08:39:15;;;;;;;;;;;7.40;99.90;;;7.04;100.00;96894.00;5016846;28;1416;-71
2023/12/22 08:41:43;;;;;;;;;;;7.50;99.90;;;7.04;100.00;96891.41;5018566;28;1005;-71
2023/12/22 08:44:10;;;;;;;;;;;7.50;99.90;;;7.27;100.00;96885.31;5017600;28;2052;-70
2023/12/22 08:46:37;;;;;;;;;;;7.50;99.90;;;7.22;100.00;96898.41;5019329;28;1205;-70
2023/12/22 08:49:04;;;;;;;;;;;7.50;99.90;;;7.04;100.00;96876.75;5021318;28;1681;-70
2023/12/22 08:51:31;;;;;;;;;;;7.50;99.90;;;7.11;100.00;96861.88;5018565;28;1973;-70
2023/12/22 08:53:58;;;;;;;;;;;7.60;99.90;;;7.37;100.00;96924.50;5029793;28;1363;-71
2023/12/22 08:56:25;;;;;;;;;;;7.50;99.90;;;7.31;100.00;96879.97;5017402;28;1085;-71
2023/12/22 08:58:54;;;;;;;;;;;7.60;99.90;;;7.49;100.00;96859.47;5017716;28;5143;-70
2023/12/22 09:01:22;;;;;;;;;;;7.60;99.90;;;7.29;100.00;96863.72;5014039;28;1089;-71
2023/12/22 09:03:49;;;;;;;;;;;7.70;99.90;;;7.32;100.00;96860.16;5028838;28;1300;-70
2023/12/22 09:06:17;;;;;;;;;;;7.60;99.90;;;7.52;100.00;96869.66;5018672;28;1077;-70
2023/12/22 09:08:44;;;;;;;;;;;7.70;99.90;;;7.37;100.00;96840.19;5017420;28;1143;-70
2023/12/22 09:11:11;;;;;;;;;;;7.70;99.90;;;7.42;100.00;96863.22;5030218;28;1983;-71
2023/12/22 09:13:39;;;;;;;;;;;7.70;99.90;;;7.62;100.00;96841.72;5046287;28;1426;-71
2023/12/22 09:16:06;;;;;;;;;;;7.70;99.90;;;7.57;100.00;96852.22;5017063;28;1111;-71
2023/12/22 09:18:32;;;;;;;;;;;7.80;99.90;;;7.57;100.00;96847.06;5015718;28;1099;-71
2023/12/22 09:21:00;;;;;;;;;;;7.80;99.90;;;7.49;100.00;96859.47;5017051;28;1076;-70
2023/12/22 09:23:27;;;;;;;;;;;7.80;99.90;;;7.60;100.00;96857.28;5018432;28;1345;-71
2023/12/22 09:25:54;;;;;;;;;;;7.80;99.90;;;7.53;100.00;96861.88;5014651;28;2059;-71
2023/12/22 09:28:21;;;;;;;;;;;7.80;99.90;;;7.44;100.00;96874.34;5013190;28;1133;-71
2023/12/22 09:30:48;;;;;;;;;;;7.80;99.90;;;7.33;100.00;96862.69;5015302;28;1914;-70
2023/12/22 09:33:15;;;;;;;;;;;7.80;99.90;;;7.56;100.00;96885.91;5012713;28;1292;-70
2023/12/22 09:35:42;;;;;;;;;;;7.80;99.90;;;7.38;100.00;96865.09;5011577;28;1114;-70
2023/12/22 09:38:10;;;;;;;;;;;7.80;99.90;;;7.55;100.00;96887.63;5013229;28;970;-70
2023/12/22 09:40:38;;;;;;;;;;;7.80;99.90;;;7.33;100.00;96877.34;5012691;28;3091;-71
2023/12/22 09:43:08;;;;;;;;;;;7.80;99.90;;;7.49;100.00;96899.03;5016749;28;1316;-70
2023/12/22 09:45:37;;;;;;;;;;;7.70;99.90;;;7.50;100.00;96899.88;5051407;28;1657;-70
2023/12/22 09:48:05;;;;;;;;;;;7.80;99.90;;;7.50;100.00;96879.22;5035864;28;1103;-70
2023/12/22 09:50:33;;;;;;;;;;;7.70;99.90;;;7.37;100.00;96883.19;5021191;28;1906;-70
2023/12/22 09:53:01;;;;;;;;;;;7.70;99.90;;;7.30;100.00;96893.81;5036603;28;2054;-71
2023/12/22 09:55:31;;;;;;;;;;;7.70;99.90;;;7.40;100.00;96885.69;5035666;28;1081;-70
2023/12/22 09:58:02;;;;;;;;;;;7.70;99.90;;;7.44;100.00;96889.81;5054946;28;5198;-71
2023/12/22 10:00:31;;;;;;;;;;;7.70;99.90;;;7.24;100.00;96896.63;5019423;28;1225;-71
2023/12/22 10:02:58;;;;;;;;;;;7.70;99.90;;;7.42;100.00;96892.47;5020303;28;1339;-71
2023/12/22 10:05:25;;;;;;;;;;;7.80;99.90;;;7.57;100.00;96883.22;5020567;28;1114;-71
2023/12/22 10:07:52;;;;;;;;;;;7.80;99.90;;;7.53;100.00;96899.78;5036460;28;2219;-71
2023/12/22 10:10:20;;;;;;;;;;;7.90;99.90;;;7.69;100.00;96874.97;5035268;28;2017;-70
2023/12/22 10:12:48;;;;;;;;;;;7.90;99.90;;;7.63;100.00;96919.13;5019657;28;1324;-70
2023/12/22 10:15:15;;;;;;;;;;;7.90;99.90;;;7.56;100.00;96894.47;5031772;28;1102;-70
2023/12/22 10:17:42;;;;;;;;;;;8.00;99.90;;;7.36;100.00;96887.53;5034904;28;1064;-71
2023/12/22 10:20:10;;;;;;;;;;;7.90;99.90;;;7.39;100.00;96887.44;5020684;28;1058;-70
2023/12/22 10:22:37;;;;;;;;;;;7.80;99.90;;;7.37;100.00;96870.28;5019497;28;3168;-70
2023/12/22 10:25:06;;;;;;;;;;;7.80;99.90;;;7.33;100.00;96882.50;5029566;28;1144;-70
2023/12/22 10:27:35;;;;;;;;;;;7.80;99.90;;;7.25;100.00;96866.47;5016811;28;1081;-70
2023/12/22 10:30:03;;;;;;;;;;;7.80;99.90;;;7.25;100.00;96879.38;5019546;28;1168;-70
2023/12/22 10:32:30;;;;;;;;;;;7.70;99.90;;;7.35;100.00;96885.88;5019429;28;1910;-70
2023/12/22 10:34:57;;;;;;;;;;;7.80;99.90;;;7.32;100.00;96870.47;5032519;28;1079;-70
2023/12/22 10:37:24;;;;;;;;;;;7.80;99.90;;;7.36;100.00;96863.47;5015090;28;1037;-69
2023/12/22 10:39:53;;;;;;;;;;;7.90;99.90;;;7.52;100.00;96877.41;5034390;28;1058;-70
2023/12/22 10:42:20;;;;;;;;;;;7.80;99.90;;;7.37;100.00;96886.66;5008404;28;1438;-70
2023/12/22 10:44:47;;;;;;;;;;;7.90;99.90;;;7.50;100.00;96859.44;5020376;28;1315;-70
2023/12/22 10:47:17;;;;;;;;;;;7.90;99.90;;;7.42;100.00;96856.31;5020485;28;1255;-70
2023/12/22 10:49:46;;;;;;;;;;;7.90;99.90;;;7.43;100.00;96857.16;5039339;28;2021;-70
2023/12/22 10:52:17;;;;;;;;;;;7.90;99.90;;;7.53;100.00;96838.63;5035008;28;1993;-70
2023/12/22 10:54:45;;;;;;;;;;;7.80;99.90;;;7.41;100.00;96848.63;5033972;28;1413;-70
2023/12/22 10:57:11;;;;;;;;;;;7.80;99.90;;;7.46;100.00;96847.53;5017470;28;4838;-70
2023/12/22 10:59:43;;;;;;;;;;;7.80;99.90;;;7.43;100.00;96849.41;5008381;28;1374;-69
2023/12/22 11:02:23;;;;;;;;;;;7.90;99.90;;;7.53;100.00;96861.88;5020623;28;1429;-70
2023/12/22 11:05:05;;;;;;;;;;;7.80;99.90;;;7.47;100.00;96858.69;5019106;28;3073;-70
2023/12/22 11:07:37;;;;;;;;;;;7.90;99.90;;;7.46;100.00;96855.28;5035236;28;1258;-70
2023/12/22 11:10:06;;;;;;;;;;;7.90;99.90;;;7.52;100.00;96836.94;5021489;28;1373;-70
2023/12/22 11:12:38;;;;;;;;;;;7.90;99.90;;;7.37;100.00;96844.47;5031882;28;2020;-70
2023/12/22 11:15:06;;;;;;;;;;;7.80;99.90;;;7.36;100.00;96833.31;5029601;28;1065;-70
2023/12/22 11:17:39;;;;;;;;;;;7.90;99.90;;;7.44;100.00;96851.09;5030373;28;1500;-70
2023/12/22 11:20:12;;;;;;;;;;;7.70;99.90;;;7.24;100.00;96836.41;5019903;28;1481;-69
2023/12/22 11:22:40;;;;;;;;;;;7.80;99.90;;;7.18;100.00;96857.31;5015007;28;1296;-70
2023/12/22 11:25:08;;;;;;;;;;;7.70;99.90;;;7.18;100.00;96845.25;5034352;28;1298;-70
2023/12/22 11:27:38;;;;;;;;;;;7.70;99.90;;;7.15;100.00;96824.72;5018340;28;1395;-70
2023/12/22 11:30:08;;;;;;;;;;;7.70;99.90;;;7.16;100.00;96816.09;5031765;28;1468;-70
2023/12/22 11:32:36;;;;;;;;;;;7.70;99.90;;;7.29;100.00;96795.75;5014167;28;2381;-70
2023/12/22 11:35:03;;;;;;;;;;;7.70;99.90;;;7.37;100.00;96832.44;5031531;28;1618;-70
2023/12/22 11:37:31;;;;;;;;;;;7.70;99.90;;;7.31;100.00;96818.03;5032794;28;1390;-70